createdAt,value
2018-02-21T00:01:29.688Z,50.57
2018-02-21T00:04:00.062Z,47.47
2018-02-21T00:06:30.133Z,44.80
2018-02-21T00:09:00.702Z,44.00
2018-02-21T00:11:31.186Z,49.97
2018-02-21T00:14:01.547Z,44.00
2018-02-21T00:16:32.075Z,53.40
2018-02-21T00:19:02.526Z,57.17
2018-02-21T00:21:32.742Z,51.73
2018-02-21T00:24:03.194Z,55.00
2018-02-21T00:26:33.535Z,44.07
2018-02-21T00:29:03.879Z,53.53
2018-02-21T00:31:35.015Z,48.53
2018-02-21T00:34:05.767Z,50.13
2018-02-21T00:36:36.252Z,48.73
2018-02-21T00:39:06.794Z,50.60
2018-02-21T00:41:37.760Z,47.83
2018-02-21T00:44:08.447Z,48.50
2018-02-21T00:46:39.441Z,49.43
2018-02-21T00:49:09.982Z,47.53
2018-02-21T00:51:40.502Z,58.57
2018-02-21T00:54:11.055Z,54.67
2018-02-21T00:56:41.764Z,39.53
2018-02-21T00:59:12.116Z,50.53
2018-02-21T01:08:28.869Z,53.87
2018-02-21T01:10:59.264Z,48.57
2018-02-21T01:13:30.125Z,56.57
2018-02-21T01:16:00.476Z,51.13
2018-02-21T01:18:30.859Z,50.07
2018-02-21T01:21:01.581Z,49.40
2018-02-21T01:23:32.031Z,47.90
2018-02-21T01:26:02.472Z,46.50
2018-02-21T01:28:33.165Z,39.60
2018-02-21T01:31:03.448Z,54.03
2018-02-21T01:33:33.608Z,47.77
2018-02-21T01:36:11.973Z,44.90
2018-02-21T01:38:50.020Z,47.67
2018-02-21T01:41:26.366Z,48.07
2018-02-21T01:44:04.243Z,55.87
2018-02-21T01:46:40.752Z,47.20
2018-02-21T01:49:11.719Z,45.00
2018-02-21T01:51:42.370Z,41.83
2018-02-21T01:54:12.957Z,56.70
2018-02-21T01:56:43.589Z,45.13
2018-02-21T01:59:14.476Z,38.43
2018-02-21T02:01:44.466Z,51.73
2018-02-21T02:04:15.184Z,49.03
2018-02-21T02:06:45.802Z,46.90
2018-02-21T02:09:16.151Z,44.87
2018-02-21T02:11:47.103Z,52.17
2018-02-21T02:14:19.061Z,43.00
2018-02-21T02:16:49.456Z,38.90
2018-02-21T02:19:19.788Z,43.03
2018-02-21T02:21:50.021Z,46.73
2018-02-21T02:24:20.423Z,43.13
2018-02-21T02:26:51.286Z,41.50
2018-02-21T02:29:21.480Z,44.73
2018-02-21T02:31:51.924Z,46.40
2018-02-21T02:34:22.059Z,48.23
2018-02-21T02:36:52.622Z,44.97
2018-02-21T02:40:01.358Z,43.20
2018-02-21T02:42:32.324Z,44.53
2018-02-21T02:45:02.552Z,44.10
2018-02-21T02:47:33.476Z,44.50
2018-02-21T02:50:03.610Z,45.87
2018-02-21T02:52:33.925Z,47.37
2018-02-21T02:55:04.371Z,47.73
2018-02-21T02:57:34.548Z,43.07
2018-02-21T03:00:05.151Z,49.93
2018-02-21T03:02:35.570Z,44.73
2018-02-21T03:05:05.831Z,44.83
2018-02-21T03:07:37.223Z,46.97
2018-02-21T03:10:07.414Z,45.67
2018-02-21T03:12:37.736Z,43.80
2018-02-21T03:15:08.674Z,42.33
2018-02-21T03:17:38.712Z,43.87
2018-02-21T03:20:08.907Z,44.47
2018-02-21T03:22:39.304Z,44.47
2018-02-21T03:25:09.467Z,50.20
2018-02-21T03:27:39.676Z,40.10
2018-02-21T03:30:09.795Z,37.33
2018-02-21T03:32:40.235Z,49.67
2018-02-21T03:35:10.255Z,42.00
2018-02-21T03:37:40.516Z,43.23
2018-02-21T03:40:10.795Z,39.00
2018-02-21T03:42:40.939Z,44.63
2018-02-21T03:45:11.262Z,40.47
2018-02-21T03:47:41.610Z,44.60
2018-02-21T03:50:11.562Z,40.47
2018-02-21T03:52:42.090Z,43.03
2018-02-21T03:55:12.244Z,39.20
2018-02-21T03:57:42.655Z,40.70
2018-02-21T04:00:13.003Z,42.40
2018-02-21T04:02:43.792Z,45.27
2018-02-21T04:05:13.967Z,51.50
2018-02-21T04:07:44.242Z,37.40
2018-02-21T04:10:14.358Z,41.77
2018-02-21T04:12:44.799Z,44.57
2018-02-21T04:15:15.711Z,51.07
2018-02-21T04:17:45.762Z,44.30
2018-02-21T04:20:16.202Z,40.73
2018-02-21T04:22:48.225Z,44.00
2018-02-21T04:25:18.486Z,44.03
2018-02-21T04:27:48.770Z,36.33
2018-02-21T04:30:18.953Z,37.10
2018-02-21T04:32:49.231Z,44.20
2018-02-21T04:35:19.222Z,50.20
2018-02-21T04:37:49.202Z,40.97
2018-02-21T04:40:19.235Z,33.97
2018-02-21T04:42:50.440Z,39.23
2018-02-21T04:45:21.284Z,39.93
2018-02-21T04:47:53.258Z,38.10
2018-02-21T04:50:24.376Z,55.03
2018-02-21T04:52:55.335Z,39.80
2018-02-21T04:55:27.004Z,41.77
2018-02-21T04:57:58.279Z,43.47
2018-02-21T05:00:28.370Z,35.47
2018-02-21T05:02:58.521Z,37.43
2018-02-21T05:05:28.507Z,35.73
2018-02-21T05:07:59.116Z,45.40
2018-02-21T05:10:30.590Z,44.57
2018-02-21T05:13:01.331Z,42.00
2018-02-21T05:15:32.342Z,31.50
2018-02-21T05:18:02.439Z,35.30
2018-02-21T05:20:32.403Z,37.20
2018-02-21T05:23:02.361Z,39.10
2018-02-21T05:25:32.455Z,34.83
2018-02-21T05:28:02.715Z,41.00
2018-02-21T05:30:32.666Z,49.20
2018-02-21T05:33:03.366Z,36.37
2018-02-21T05:35:33.954Z,38.87
2018-02-21T05:38:04.095Z,33.90
2018-02-21T05:40:34.177Z,34.13
2018-02-21T05:43:04.158Z,40.23
2018-02-21T05:45:34.906Z,32.40
2018-02-21T05:48:05.967Z,45.70
2018-02-21T05:50:35.952Z,44.10
2018-02-21T05:53:06.228Z,39.10
2018-02-21T05:55:36.486Z,39.83
2018-02-21T05:58:06.456Z,40.53
2018-02-21T06:00:36.580Z,41.10
2018-02-21T06:03:07.625Z,35.23
2018-02-21T06:05:37.658Z,35.00
2018-02-21T06:08:07.651Z,39.17
2018-02-21T06:10:37.834Z,41.07
2018-02-21T06:13:07.842Z,37.37
2018-02-21T06:15:38.721Z,37.23
2018-02-21T06:18:10.042Z,32.80
2018-02-21T06:20:40.923Z,37.83
2018-02-21T06:23:11.223Z,38.70
2018-02-21T06:25:41.543Z,40.80
2018-02-21T06:28:11.538Z,41.37
2018-02-21T06:30:42.438Z,45.43
2018-02-21T06:33:12.941Z,44.37
2018-02-21T06:35:42.951Z,52.27
2018-02-21T06:38:12.954Z,51.40
2018-02-21T06:40:43.079Z,45.63
2018-02-21T06:43:13.153Z,40.13
2018-02-21T06:45:43.767Z,50.90
2018-02-21T06:48:13.837Z,39.43
2018-02-21T06:50:43.938Z,36.33
2018-02-21T06:53:14.830Z,47.33
2018-02-21T06:55:44.958Z,43.80
2018-02-21T06:58:14.991Z,44.03
2018-02-21T07:00:45.309Z,38.67
2018-02-21T07:03:15.515Z,43.87
2018-02-21T07:05:45.678Z,44.93
2018-02-21T07:08:16.890Z,35.60
2018-02-21T07:10:46.904Z,43.90
2018-02-21T07:13:16.966Z,41.00
2018-02-21T07:15:47.446Z,39.63
2018-02-21T07:18:18.374Z,50.20
2018-02-21T07:20:48.478Z,32.10
2018-02-21T07:23:18.958Z,37.67
2018-02-21T07:25:50.478Z,35.50
2018-02-21T07:28:20.640Z,39.90
2018-02-21T07:30:50.743Z,45.53
2018-02-21T07:33:21.546Z,45.57
2018-02-21T07:35:51.838Z,48.27
2018-02-21T07:38:22.240Z,39.83
2018-02-21T07:40:53.145Z,53.90
2018-02-21T07:43:23.213Z,52.20
2018-02-21T07:45:53.200Z,53.47
2018-02-21T07:48:23.693Z,60.27
2018-02-21T07:50:53.747Z,56.30
2018-02-21T07:53:23.872Z,58.03
2018-02-21T07:55:54.902Z,52.67
2018-02-21T07:58:25.003Z,58.63
2018-02-21T08:00:55.022Z,56.90
2018-02-21T08:03:25.057Z,50.43
2018-02-21T08:05:55.066Z,54.23
2018-02-21T08:08:25.894Z,46.57
2018-02-21T08:10:55.890Z,52.80
2018-02-21T08:13:26.768Z,54.53
2018-02-21T08:15:57.695Z,43.03
2018-02-21T08:18:27.715Z,50.87
2018-02-21T08:20:58.196Z,45.27
2018-02-21T08:23:28.350Z,43.47
2018-02-21T08:25:58.360Z,49.50
2018-02-21T08:28:28.398Z,53.33
2018-02-21T08:30:59.234Z,49.77
2018-02-21T08:33:30.059Z,59.57
2018-02-21T08:36:00.112Z,50.30
2018-02-21T08:38:30.298Z,41.40
2018-02-21T08:42:29.712Z,49.00
2018-02-21T08:45:00.184Z,40.93
2018-02-21T08:47:30.297Z,44.27
2018-02-21T08:50:00.391Z,41.27
2018-02-21T08:52:31.275Z,50.13
2018-02-21T08:55:01.537Z,52.90
2018-02-21T08:57:31.575Z,50.23
2018-02-21T09:00:02.356Z,52.97
2018-02-21T09:02:32.402Z,53.73
2018-02-21T09:05:02.461Z,60.33
2018-02-21T09:07:32.585Z,46.93
2018-02-21T09:10:02.696Z,47.20
2018-02-21T09:12:32.687Z,49.63
2018-02-21T09:15:03.555Z,49.40
2018-02-21T09:17:33.818Z,52.50
2018-02-21T09:20:03.951Z,53.60
2018-02-21T09:22:34.061Z,54.93
2018-02-21T09:25:04.132Z,52.13
2018-02-21T09:27:34.163Z,56.93
2018-02-21T09:30:04.272Z,50.23
2018-02-21T09:32:34.291Z,49.07
2018-02-21T09:35:04.313Z,47.57
2018-02-21T09:37:35.349Z,46.50
2018-02-21T09:40:05.503Z,47.87
2018-02-21T09:42:35.600Z,49.80
2018-02-21T09:45:05.666Z,48.63
2018-02-21T09:47:36.538Z,52.33
2018-02-21T09:50:06.643Z,47.40
2018-02-21T09:52:37.238Z,51.97
2018-02-21T09:55:08.763Z,47.43
2018-02-21T09:57:39.215Z,53.10
2018-02-21T10:00:09.495Z,55.63
2018-02-21T10:02:39.620Z,48.37
2018-02-21T10:05:09.626Z,50.17
2018-02-21T10:07:39.647Z,50.30
2018-02-21T10:10:09.706Z,54.93
2018-02-21T10:12:40.106Z,48.63
2018-02-21T10:15:10.198Z,47.67
2018-02-21T10:17:40.335Z,57.43
2018-02-21T10:20:10.639Z,47.77
2018-02-21T10:22:41.298Z,50.20
2018-02-21T10:25:11.432Z,46.10
2018-02-21T10:27:41.478Z,52.07
2018-02-21T10:30:12.314Z,49.47
2018-02-21T10:32:43.196Z,55.87
2018-02-21T10:35:13.290Z,53.33
2018-02-21T10:37:43.621Z,45.93
2018-02-21T10:40:13.750Z,43.20
2018-02-21T10:42:43.866Z,49.80
2018-02-21T10:45:13.899Z,44.53
2018-02-21T10:47:44.039Z,42.03
2018-02-21T10:50:14.143Z,44.57
2018-02-21T10:52:44.525Z,48.13
2018-02-21T10:55:14.665Z,49.13
2018-02-21T10:57:45.012Z,49.70
2018-02-21T11:00:20.968Z,52.67
2018-02-21T11:02:51.912Z,44.80
2018-02-21T11:05:22.258Z,42.03
2018-02-21T11:07:53.087Z,44.43
2018-02-21T11:10:23.355Z,46.80
2018-02-21T11:12:53.380Z,46.90
2018-02-21T11:15:23.775Z,45.70
2018-02-21T11:17:54.563Z,44.33
2018-02-21T11:20:24.679Z,40.20
2018-02-21T11:22:54.755Z,45.20
2018-02-21T11:25:25.745Z,44.63
2018-02-21T11:27:55.812Z,40.47
2018-02-21T11:30:26.642Z,40.37
2018-02-21T11:32:57.400Z,42.97
2018-02-21T11:35:27.522Z,39.73
2018-02-21T11:37:57.560Z,42.37
2018-02-21T11:40:27.781Z,42.57
2018-02-21T11:42:57.876Z,48.67
2018-02-21T11:45:27.882Z,44.70
2018-02-21T11:47:57.884Z,41.40
2018-02-21T11:50:28.857Z,42.57
2018-02-21T11:52:59.263Z,44.30
2018-02-21T11:55:29.409Z,38.93
2018-02-21T11:57:59.991Z,44.63
2018-02-21T12:00:31.147Z,45.07
2018-02-21T12:03:02.043Z,46.93
2018-02-21T12:05:33.096Z,42.17
2018-02-21T12:08:03.372Z,43.10
2018-02-21T12:10:33.426Z,39.73
2018-02-21T12:13:03.489Z,42.73
2018-02-21T12:15:33.487Z,45.20
2018-02-21T12:18:04.305Z,40.67
2018-02-21T12:20:34.652Z,35.47
2018-02-21T12:23:04.759Z,47.10
2018-02-21T12:25:35.039Z,38.47
2018-02-21T12:28:05.593Z,37.70
2018-02-21T12:30:35.846Z,38.77
2018-02-21T12:33:06.813Z,37.87
2018-02-21T12:35:37.180Z,31.17
2018-02-21T12:38:07.260Z,39.97
2018-02-21T12:40:42.215Z,40.00
2018-02-21T12:43:12.222Z,39.07
2018-02-21T12:45:42.242Z,33.60
2018-02-21T12:48:12.644Z,37.10
2018-02-21T12:50:42.721Z,38.10
2018-02-21T12:53:13.831Z,37.53
2018-02-21T12:55:44.251Z,30.67
2018-02-21T12:58:14.268Z,34.87
2018-02-21T13:00:44.607Z,37.83
2018-02-21T13:03:15.047Z,36.73
2018-02-21T13:05:45.935Z,31.10
2018-02-21T13:08:15.951Z,41.00
2018-02-21T13:10:46.186Z,36.13
2018-02-21T13:13:16.567Z,36.87
2018-02-21T13:15:47.354Z,39.93
2018-02-21T13:18:17.375Z,36.77
2018-02-21T13:20:47.777Z,35.23
2018-02-21T13:23:17.901Z,37.07
2018-02-21T13:25:49.015Z,35.23
2018-02-21T13:28:20.145Z,34.93
2018-02-21T13:30:51.111Z,38.33
2018-02-21T13:33:21.181Z,32.83
2018-02-21T13:35:51.332Z,36.50
2018-02-21T13:38:21.495Z,31.20
2018-02-21T13:40:52.418Z,31.37
2018-02-21T13:43:22.503Z,32.23
2018-02-21T13:45:53.363Z,38.03
2018-02-21T13:50:59.999Z,31.50
2018-02-21T13:53:30.175Z,34.20
2018-02-21T13:56:00.224Z,30.70
2018-02-21T13:58:30.291Z,32.60
2018-02-21T14:01:01.240Z,31.33
2018-02-21T14:03:31.450Z,35.33
2018-02-21T14:06:02.267Z,33.70
2018-02-21T14:08:32.756Z,33.10
2018-02-21T14:11:02.919Z,32.00
2018-02-21T14:13:33.164Z,31.77
2018-02-21T14:16:03.305Z,27.97
2018-02-21T14:18:34.387Z,29.53
2018-02-21T14:21:04.451Z,34.57
2018-02-21T14:23:34.486Z,35.20
2018-02-21T14:26:04.626Z,31.70
2018-02-21T14:28:34.690Z,30.60
2018-02-21T14:31:05.120Z,38.20
2018-02-21T14:33:35.125Z,28.50
2018-02-21T14:36:05.968Z,31.00
2018-02-21T14:38:36.004Z,30.10
2018-02-21T14:41:06.089Z,31.80
2018-02-21T14:43:36.895Z,29.70
2018-02-21T14:46:07.228Z,31.20
2018-02-21T14:48:37.274Z,30.10
2018-02-21T14:51:08.043Z,29.23
2018-02-21T14:53:38.386Z,35.67
2018-02-21T14:56:08.405Z,36.03
2018-02-21T14:58:38.496Z,35.03
2018-02-21T15:01:08.526Z,30.70
2018-02-21T15:03:38.637Z,27.47
2018-02-21T15:06:08.735Z,32.47
2018-02-21T15:08:39.172Z,35.40
2018-02-21T15:11:09.223Z,33.00
2018-02-21T15:13:39.277Z,34.13
2018-02-21T15:16:14.966Z,34.17
2018-02-21T15:18:45.040Z,32.10
2018-02-21T15:21:16.225Z,31.80
2018-02-21T15:23:47.021Z,33.77
2018-02-21T15:26:17.842Z,37.00
2018-02-21T15:28:47.961Z,31.23
2018-02-21T15:31:18.384Z,29.37
2018-02-21T15:33:48.442Z,26.60
2018-02-21T15:36:18.563Z,31.30
2018-02-21T15:41:13.083Z,35.83
2018-02-21T15:43:43.170Z,26.33
2018-02-21T15:46:14.290Z,31.33
2018-02-21T15:48:44.526Z,31.33
2018-02-21T15:51:15.351Z,28.63
2018-02-21T15:53:45.366Z,34.27
2018-02-21T15:56:15.485Z,26.20
2018-02-21T15:58:45.663Z,32.50
2018-02-21T16:01:16.002Z,22.80
2018-02-21T16:03:46.159Z,27.90
2018-02-21T16:06:17.090Z,22.57
2018-02-21T16:08:47.123Z,28.27
2018-02-21T16:11:18.042Z,29.20
2018-02-21T16:13:48.110Z,32.23
2018-02-21T16:16:18.664Z,29.53
2018-02-21T16:18:48.750Z,30.20
2018-02-21T16:21:19.327Z,31.43
2018-02-21T16:23:49.426Z,31.03
2018-02-21T16:26:19.788Z,35.00
2018-02-21T16:28:49.882Z,36.37
2018-02-21T16:31:20.004Z,29.93
2018-02-21T16:33:50.042Z,30.60
2018-02-21T16:36:20.144Z,32.60
2018-02-21T16:38:50.175Z,32.30
2018-02-21T16:41:20.479Z,29.03
2018-02-21T16:43:50.753Z,34.60
2018-02-21T16:46:20.762Z,28.57
2018-02-21T16:48:50.787Z,27.00
2018-02-21T16:51:20.814Z,24.97
2018-02-21T16:53:55.127Z,31.10
2018-02-21T16:56:25.599Z,27.70
2018-02-21T16:58:55.638Z,31.37
2018-02-21T17:01:26.683Z,33.23
2018-02-21T17:03:57.473Z,28.20
2018-02-21T17:06:27.954Z,29.90
2018-02-21T17:08:58.881Z,31.47
2018-02-21T17:11:30.152Z,29.63
2018-02-21T17:14:00.178Z,29.90
2018-02-21T17:16:30.182Z,35.10
2018-02-21T17:19:01.111Z,29.93
2018-02-21T17:21:31.251Z,32.83
2018-02-21T17:24:01.238Z,27.50
2018-02-21T17:26:32.022Z,32.60
2018-02-21T17:29:02.411Z,32.90
2018-02-21T17:31:32.602Z,37.80
2018-02-21T17:34:02.630Z,34.10
2018-02-21T17:36:33.413Z,32.73
2018-02-21T17:39:03.575Z,36.03
2018-02-21T17:41:34.077Z,28.20
2018-02-21T17:44:04.158Z,28.07
2018-02-21T17:46:34.337Z,30.07
2018-02-21T17:49:04.355Z,31.33
2018-02-21T17:51:35.234Z,31.37
2018-02-21T17:54:05.418Z,25.57
2018-02-21T17:56:37.738Z,24.50
2018-02-21T17:59:07.831Z,24.90
2018-02-21T18:01:38.242Z,27.33
2018-02-21T18:04:10.061Z,29.40
2018-02-21T18:06:41.770Z,27.17
2018-02-21T18:09:12.522Z,27.90
2018-02-21T18:11:44.067Z,29.33
2018-02-21T18:14:14.380Z,30.77
2018-02-21T18:16:46.118Z,26.77
2018-02-21T18:19:18.532Z,31.80
2018-02-21T18:21:50.966Z,30.70
2018-02-21T18:24:21.618Z,27.60
2018-02-21T18:26:55.318Z,30.77
2018-02-21T18:29:27.414Z,29.87
2018-02-21T18:31:57.727Z,32.90
2018-02-21T18:34:28.037Z,30.13
2018-02-21T18:36:58.118Z,30.47
2018-02-21T18:39:28.241Z,26.93
2018-02-21T18:41:59.471Z,25.33
2018-02-21T18:44:29.493Z,27.10
2018-02-21T18:46:59.503Z,32.67
2018-02-21T18:49:29.927Z,32.90
2018-02-21T18:52:00.028Z,37.87
2018-02-21T18:54:30.117Z,30.50
2018-02-21T18:57:00.552Z,36.93
2018-02-21T18:59:30.705Z,30.33
2018-02-21T19:02:00.750Z,31.63
2018-02-21T19:04:31.780Z,30.80
2018-02-21T19:13:48.361Z,30.00
2018-02-21T19:16:18.774Z,34.83
2018-02-21T19:18:49.035Z,32.97
2018-02-21T19:21:19.107Z,28.23
2018-02-21T19:23:50.033Z,28.83
2018-02-21T19:26:21.265Z,37.87
2018-02-21T19:28:51.344Z,32.77
2018-02-21T19:31:21.370Z,31.57
2018-02-21T19:33:51.735Z,30.80
2018-02-21T19:36:22.243Z,31.67
2018-02-21T19:38:52.311Z,27.23
2018-02-21T19:41:22.378Z,29.40
2018-02-21T19:43:53.754Z,27.47
2018-02-21T19:46:24.851Z,27.10
2018-02-21T19:48:54.983Z,34.93
2018-02-21T19:51:25.723Z,27.27
2018-02-21T19:53:56.466Z,28.20
2018-02-21T19:56:26.495Z,31.77
2018-02-21T19:58:57.350Z,30.37
2018-02-21T20:01:27.479Z,33.17
2018-02-21T20:03:57.993Z,35.23
2018-02-21T20:06:29.138Z,33.23
2018-02-21T20:08:59.236Z,31.00
2018-02-21T20:11:30.506Z,31.17
2018-02-21T20:14:01.124Z,32.50
2018-02-21T20:16:31.161Z,34.03
2018-02-21T20:19:01.378Z,31.20
2018-02-21T20:21:31.840Z,29.00
2018-02-21T20:24:04.540Z,30.57
2018-02-21T20:26:35.791Z,25.27
2018-02-21T20:29:12.270Z,33.67
2018-02-21T20:31:46.214Z,27.50
2018-02-21T20:34:18.605Z,27.33
2018-02-21T20:36:56.880Z,25.37
2018-02-21T20:39:27.674Z,29.20
2018-02-21T20:41:58.471Z,25.00
2018-02-21T20:44:28.948Z,29.87
2018-02-21T20:46:58.993Z,23.93
2018-02-21T20:49:29.036Z,25.77
2018-02-21T20:51:59.357Z,26.67
2018-02-21T20:54:30.246Z,24.73
2018-02-21T20:57:00.341Z,22.13
2018-02-21T20:59:30.679Z,27.00
2018-02-21T21:02:03.100Z,19.10
2018-02-21T21:04:34.166Z,18.47
2018-02-21T21:07:05.616Z,21.40
2018-02-21T21:09:36.015Z,23.97
2018-02-21T21:12:07.123Z,19.53
2018-02-21T21:14:37.393Z,24.93
2018-02-21T21:17:07.547Z,21.37
2018-02-21T21:19:37.561Z,28.77
2018-02-21T21:22:07.938Z,24.17
2018-02-21T21:24:38.028Z,25.83
2018-02-21T21:27:08.119Z,25.70
2018-02-21T21:29:38.202Z,24.23
2018-02-21T21:32:08.245Z,20.40
2018-02-21T21:34:38.542Z,26.67
2018-02-21T21:37:09.278Z,29.30
2018-02-21T21:39:39.603Z,26.93
2018-02-21T21:42:10.136Z,26.80
2018-02-21T21:44:40.282Z,24.00
2018-02-21T21:47:10.413Z,22.50
2018-02-21T21:49:40.533Z,20.20
2018-02-21T21:52:11.784Z,19.43
2018-02-21T21:54:43.603Z,19.70
2018-02-21T21:57:13.914Z,28.07
2018-02-21T21:59:44.016Z,22.30
2018-02-21T22:02:14.465Z,27.33
2018-02-21T22:04:44.994Z,22.00
2018-02-21T22:07:15.478Z,20.83
2018-02-21T22:09:46.442Z,32.10
2018-02-21T22:12:16.520Z,23.13
2018-02-21T22:14:47.977Z,20.50
2018-02-21T22:17:18.095Z,19.13
2018-02-21T22:19:49.054Z,19.67
2018-02-21T22:22:19.547Z,22.07
2018-02-21T22:24:51.038Z,21.20
2018-02-21T22:27:21.524Z,26.57
2018-02-21T22:29:51.789Z,20.33
2018-02-21T22:32:22.340Z,20.10
2018-02-21T22:34:52.615Z,19.90
2018-02-21T22:37:22.974Z,26.93
2018-02-21T22:39:53.626Z,22.50
2018-02-21T22:42:23.828Z,23.37
2018-02-21T22:44:54.275Z,23.90
2018-02-21T22:47:24.662Z,25.30
2018-02-21T22:49:54.936Z,21.73
2018-02-21T22:52:25.463Z,25.37
2018-02-21T22:54:56.208Z,24.83
2018-02-21T22:57:26.378Z,15.30
2018-02-21T22:59:56.559Z,25.30
2018-02-21T23:02:27.808Z,21.20
2018-02-21T23:04:58.042Z,20.77
2018-02-21T23:07:29.677Z,20.10
2018-02-21T23:10:00.432Z,18.77
2018-02-21T23:12:30.946Z,18.20
2018-02-21T23:15:01.098Z,21.63
2018-02-21T23:17:31.722Z,19.20
2018-02-21T23:20:01.963Z,19.63
2018-02-21T23:22:32.186Z,16.70
2018-02-21T23:25:02.806Z,17.07
2018-02-21T23:27:33.071Z,21.67
2018-02-21T23:30:03.471Z,14.13
2018-02-21T23:32:33.574Z,19.43
2018-02-21T23:35:04.103Z,19.97
2018-02-21T23:37:34.554Z,19.50
2018-02-21T23:40:04.713Z,19.60
2018-02-21T23:42:35.251Z,20.33
2018-02-21T23:45:05.929Z,16.40
2018-02-21T23:47:36.124Z,15.70
2018-02-21T23:50:06.445Z,17.00
2018-02-21T23:52:36.797Z,17.10
2018-02-21T23:55:07.043Z,15.50
2018-02-21T23:57:37.730Z,17.20
